Terminal Aerodrome Forecast
Issued by NWS Duluth, MN

Home | Current Version | Previous Version | Text Only | Print | Product List | Glossary On
Versions: 1 2 3 4 5 6 7 8 9 10 11 12 13 14 15 16 17 18 19 20 21 22 23 24 25 26 27
711
FTUS43 KDLH 230538
TAFDLH
TAF
KDLH 230538Z 2306/2406 33005KT P6SM VCSH SCT025 BKN035
     FM230800 VRB03KT P6SM BKN020
     FM231100 35004KT 4SM BR VCSH OVC010
     FM231400 04006KT P6SM VCSH OVC015
     FM231800 05010KT P6SM VCSH BKN035=

USA.gov is the U.S. government's official web portal to all federal, state and local government web resources and services.